Time;durP1;ratioP1;P1;durP2;ratioP2;P2;SDS_P1;SDS_P2;PMS_P1;PMS_P2;Temp;Humidity;BMP_temperature;BMP_pressure;BME280_temperature;BME280_humidity;BME280_pressure;Samples;Min_cycle;Max_cycle;Signal;HPM_P1;HPM_P2
2023/04/14 00:01:26;;;;;;;;;;;13.40;78.90;;;;;;5036460;28;20070;-86
2023/04/14 00:03:52;;;;;;;8.23;1.48;;;13.40;77.60;;;;;;5035923;28;19999;-86
2023/04/14 00:06:18;;;;;;;;;;;13.50;77.00;;;;;;5036256;28;20064;-86
2023/04/14 00:08:43;;;;;;;2.80;1.17;;;13.50;77.00;;;;;;5035989;28;19970;-85
2023/04/14 00:11:09;;;;;;;;;;;13.60;76.00;;;;;;5036759;28;20459;-85
2023/04/14 00:13:34;;;;;;;2.63;1.27;;;13.60;74.90;;;;;;5035664;28;20346;-85
2023/04/14 00:16:00;;;;;;;;;;;13.60;74.80;;;;;;5036165;28;20032;-86
2023/04/14 00:18:26;;;;;;;4.07;1.27;;;13.60;74.20;;;;;;5036046;28;19912;-86
2023/04/14 00:20:53;;;;;;;;;;;13.60;73.60;;;;;;5035879;28;20401;-86
2023/04/14 00:23:19;;;;;;;2.97;1.27;;;13.50;72.90;;;;;;5033533;28;20300;-86
2023/04/14 00:25:45;;;;;;;1.58;0.93;;;13.50;72.90;;;;;;5035286;28;20047;-86
2023/04/14 00:28:10;;;;;;;;;;;13.50;72.10;;;;;;5053846;28;20018;-87
2023/04/14 00:30:36;;;;;;;5.90;1.42;;;13.40;72.20;;;;;;5035730;28;19904;-85
2023/04/14 00:33:01;;;;;;;;;;;13.40;72.20;;;;;;5035830;28;20066;-86
2023/04/14 00:35:27;;;;;;;3.72;1.23;;;13.30;71.20;;;;;;5035334;28;20280;-86
2023/04/14 00:37:55;;;;;;;;;;;13.40;70.50;;;;;;5035687;28;20525;-86
2023/04/14 00:40:21;;;;;;;3.15;0.98;;;13.40;68.70;;;;;;5035381;28;19944;-86
2023/04/14 00:42:46;;;;;;;;;;;13.40;68.90;;;;;;5035141;28;20056;-85
2023/04/14 00:45:13;;;;;;;1.95;0.70;;;13.40;68.20;;;;;;5035023;28;19905;-86
2023/04/14 00:47:40;;;;;;;1.88;1.10;;;13.40;66.90;;;;;;5035382;28;20074;-85
2023/04/14 00:50:10;;;;;;;2.53;0.82;;;13.50;66.50;;;;;;5034894;28;20123;-86
2023/04/14 00:52:37;;;;;;;1.67;0.93;;;13.50;65.40;;;;;;5035071;28;20025;-86
2023/04/14 00:55:04;;;;;;;4.72;0.75;;;13.50;65.20;;;;;;5035225;28;20037;-88
2023/04/14 00:57:30;;;;;;;2.97;0.80;;;13.60;64.40;;;;;;5035448;28;20071;-87
2023/04/14 00:59:58;;;;;;;2.55;0.90;;;13.60;64.40;;;;;;5035182;28;20035;-88
2023/04/14 01:02:24;;;;;;;3.00;0.90;;;13.60;64.20;;;;;;5035256;28;20025;-87
2023/04/14 01:04:51;;;;;;;2.33;0.93;;;13.70;62.40;;;;;;5034892;28;20036;-84
2023/04/14 01:07:21;;;;;;;1.90;0.93;;;13.70;62.20;;;;;;5034746;28;20072;-86
2023/04/14 01:09:46;;;;;;;1.67;0.88;;;13.70;62.20;;;;;;5034454;28;20394;-85
2023/04/14 01:12:21;;;;;;;;;;;13.70;62.30;;;;;;5035273;28;20035;-85
2023/04/14 01:14:54;;;;;;;2.15;0.80;;;13.70;63.20;;;;;;5034660;28;19923;-85
2023/04/14 01:17:48;;;;;;;3.47;0.63;;;13.60;63.60;;;;;;5034343;28;20064;-85
2023/04/14 01:20:32;;;;;;;3.63;0.80;;;13.60;63.80;;;;;;5033297;28;20021;-84
2023/04/14 01:23:08;;;;;;;1.70;0.70;;;13.60;64.00;;;;;;5034660;28;20035;-86
2023/04/14 01:26:11;;;;;;;3.07;0.93;;;13.50;63.40;;;;;;5035026;28;20029;-86
2023/04/14 01:29:09;;;;;;;2.13;0.80;;;13.60;63.30;;;;;;5037370;28;20086;-87
2023/04/14 01:31:46;;;;;;;2.30;0.70;;;13.60;63.40;;;;;;5021754;28;20091;-87
2023/04/14 01:34:35;;;;;;;5.57;1.50;;;13.60;62.90;;;;;;5034878;28;20058;-88
2023/04/14 01:37:06;;;;;;;1.70;0.70;;;13.60;62.50;;;;;;5034524;28;20040;-87
2023/04/14 01:39:38;;;;;;;3.75;1.10;;;13.60;63.40;;;;;;5034713;28;20558;-88
2023/04/14 01:42:07;;;;;;;2.15;0.75;;;13.60;62.40;;;;;;5034234;28;20029;-87
2023/04/14 01:44:35;;;;;;;1.65;0.60;;;13.60;62.20;;;;;;5035196;28;20036;-88
2023/04/14 01:47:04;;;;;;;1.52;0.77;;;13.70;61.80;;;;;;5034100;28;20035;-88
2023/04/14 01:49:33;;;;;;;1.50;0.60;;;13.70;61.70;;;;;;5032195;28;20029;-88
2023/04/14 01:52:01;;;;;;;2.88;0.80;;;13.70;61.70;;;;;;5033091;28;20116;-87
2023/04/14 01:54:28;;;;;;;2.38;0.95;;;13.70;61.50;;;;;;5034666;28;20513;-88
2023/04/14 01:56:55;;;;;;;2.25;1.08;;;13.70;61.00;;;;;;5035073;28;20124;-88
2023/04/14 01:59:23;;;;;;;2.28;0.90;;;13.70;60.60;;;;;;5034709;28;20067;-88
2023/04/14 02:01:50;;;;;;;4.13;1.17;;;13.80;61.60;;;;;;5037008;28;20049;-88
2023/04/14 02:04:20;;;;;;;2.03;0.80;;;13.80;61.10;;;;;;5038327;28;20029;-89
2023/04/14 02:06:48;;;;;;;1.95;1.05;;;13.80;61.40;;;;;;5056171;28;20040;-88
2023/04/14 02:09:14;;;;;;;2.47;1.33;;;13.70;61.70;;;;;;5038149;28;20021;-88
2023/04/14 02:11:42;;;;;;;1.88;1.20;;;13.70;62.30;;;;;;5038545;28;20028;-88
2023/04/14 02:14:09;;;;;;;3.45;0.98;;;13.70;63.20;;;;;;5038217;28;20131;-88
2023/04/14 02:16:37;;;;;;;3.10;1.05;;;13.70;63.70;;;;;;5035183;28;20044;-84
2023/04/14 02:19:04;;;;;;;5.07;1.10;;;13.60;64.20;;;;;;5037836;28;20159;-85
2023/04/14 02:21:32;;;;;;;3.33;1.50;;;13.60;64.70;;;;;;5054978;28;20029;-84
2023/04/14 02:23:58;;;;;;;2.20;1.23;;;13.60;64.80;;;;;;5037455;28;20028;-84
2023/04/14 02:26:26;;;;;;;;;;;13.60;64.60;;;;;;5037703;28;20021;-85
2023/04/14 02:29:08;;;;;;;3.95;1.58;;;13.60;65.10;;;;;;5037329;28;19905;-84
2023/04/14 02:31:38;;;;;;;7.20;1.13;;;13.60;64.80;;;;;;5037183;28;20029;-85
2023/04/14 02:34:08;;;;;;;2.42;1.50;;;13.70;64.90;;;;;;5054975;28;20139;-85
2023/04/14 02:36:51;;;;;;;3.42;1.20;;;13.60;64.50;;;;;;5036510;28;20112;-84
2023/04/14 02:39:20;;;;;;;3.63;1.35;;;13.70;64.50;;;;;;5036990;28;20025;-84
2023/04/14 02:41:52;;;;;;;3.17;1.52;;;13.70;64.70;;;;;;5035392;28;20033;-84
2023/04/14 02:44:25;;;;;;;4.53;1.40;;;13.70;64.80;;;;;;5036012;28;20515;-84
2023/04/14 02:47:06;;;;;;;3.03;1.60;;;13.70;64.60;;;;;;5036067;28;20095;-83
2023/04/14 02:49:35;;;;;;;3.80;1.48;;;13.80;64.60;;;;;;5055078;28;20037;-88
2023/04/14 02:52:04;;;;;;;3.63;1.25;;;13.80;64.90;;;;;;5037402;28;20025;-87
2023/04/14 02:54:35;;;;;;;3.15;1.30;;;13.80;64.80;;;;;;5037306;28;20037;-88
2023/04/14 02:57:02;;;;;;;2.50;1.42;;;13.70;65.60;;;;;;5037499;28;20028;-84
2023/04/14 02:59:30;;;;;;;4.60;1.52;;;13.70;64.70;;;;;;5036173;28;20021;-86
2023/04/14 03:02:00;;;;;;;4.25;1.95;;;13.80;64.20;;;;;;5037183;28;20082;-86
2023/04/14 03:04:29;;;;;;;2.60;1.30;;;13.90;64.50;;;;;;5036809;28;20028;-85
2023/04/14 03:06:55;;;;;;;2.60;1.48;;;13.80;64.80;;;;;;5037218;28;20155;-86
2023/04/14 03:09:23;;;;;;;4.78;1.63;;;13.70;64.80;;;;;;5036986;28;20037;-84
2023/04/14 03:11:49;;;;;;;4.68;1.50;;;13.70;64.50;;;;;;5036171;28;20047;-84
2023/04/14 03:14:18;;;;;;;3.33;1.48;;;13.70;64.90;;;;;;5032451;28;20103;-84
2023/04/14 03:16:45;;;;;;;3.17;1.52;;;13.70;65.20;;;;;;5032635;28;20148;-84
2023/04/14 03:19:12;;;;;;;2.72;1.50;;;13.80;65.10;;;;;;5032653;28;20401;-84
2023/04/14 03:21:38;;;;;;;2.92;1.48;;;13.70;65.50;;;;;;5032834;28;20014;-83
2023/04/14 03:24:05;;;;;;;;;;;13.70;65.40;;;;;;5031795;28;20030;-84
2023/04/14 03:26:33;;;;;;;6.40;1.55;;;13.70;65.50;;;;;;5031924;28;20365;-84
2023/04/14 03:29:02;;;;;;;2.90;1.50;;;13.70;65.60;;;;;;5032752;28;20067;-84
2023/04/14 03:31:35;;;;;;;5.82;1.67;;;13.70;65.80;;;;;;5032483;28;20021;-85
2023/04/14 03:34:03;;;;;;;7.63;1.77;;;13.70;66.00;;;;;;5032483;28;20041;-84
2023/04/14 03:36:30;;;;;;;2.78;1.48;;;13.60;66.40;;;;;;5032186;28;20029;-84
2023/04/14 03:39:00;;;;;;;5.97;1.80;;;13.60;66.50;;;;;;5032050;28;20025;-84
2023/04/14 03:41:26;;;;;;;3.60;1.65;;;13.60;66.70;;;;;;5032061;28;20759;-84
2023/04/14 03:43:55;;;;;;;3.58;1.63;;;13.60;66.90;;;;;;5031694;28;20756;-85
2023/04/14 03:46:23;;;;;;;3.33;1.60;;;13.60;67.10;;;;;;5032515;28;20044;-87
2023/04/14 03:48:51;;;;;;;3.55;1.88;;;13.50;67.20;;;;;;5033049;28;20485;-86
2023/04/14 03:51:19;;;;;;;4.13;2.17;;;13.50;67.60;;;;;;5034110;28;20021;-86
2023/04/14 03:53:46;;;;;;;4.38;2.17;;;13.50;67.70;;;;;;5032705;28;20038;-86
2023/04/14 03:56:12;;;;;;;7.03;1.70;;;13.40;68.30;;;;;;5033357;28;20025;-86
2023/04/14 03:58:39;;;;;;;;;;;13.40;68.40;;;;;;5032988;28;20516;-86
2023/04/14 04:01:05;;;;;;;3.38;1.75;;;13.30;68.80;;;;;;5031301;28;19987;-86
2023/04/14 04:03:32;;;;;;;;;;;13.30;68.90;;;;;;5031209;28;20099;-85
2023/04/14 04:05:59;;;;;;;10.35;2.25;;;13.20;69.50;;;;;;5030672;28;19912;-87
2023/04/14 04:08:25;;;;;;;6.15;1.50;;;13.20;69.60;;;;;;5030136;28;20029;-87
2023/04/14 04:10:53;;;;;;;5.22;2.00;;;13.20;69.90;;;;;;5030791;28;20029;-87
2023/04/14 04:13:20;;;;;;;5.53;2.25;;;13.20;70.30;;;;;;5031183;28;20037;-86
2023/04/14 04:15:48;;;;;;;7.15;2.20;;;13.20;70.70;;;;;;5051975;28;20037;-86
2023/04/14 04:18:15;;;;;;;4.30;1.88;;;13.10;70.90;;;;;;5034000;28;20060;-83
2023/04/14 04:20:42;;;;;;;5.07;2.03;;;13.10;71.20;;;;;;5033891;28;20035;-85
2023/04/14 04:23:09;;;;;;;5.82;2.17;;;13.10;71.30;;;;;;5032559;28;20092;-84
2023/04/14 04:25:38;;;;;;;4.25;2.40;;;13.10;71.60;;;;;;5033008;28;20024;-85
2023/04/14 04:28:04;;;;;;;5.07;2.42;;;13.00;72.00;;;;;;5034303;28;20056;-83
2023/04/14 04:30:31;;;;;;;;;;;13.00;72.50;;;;;;5035055;28;20477;-85
2023/04/14 04:32:57;;;;;;;5.00;1.95;;;13.00;72.80;;;;;;5034530;28;19912;-84
2023/04/14 04:35:23;;;;;;;;;;;13.00;73.10;;;;;;5034335;28;20390;-86
2023/04/14 04:37:49;;;;;;;3.77;1.93;;;13.00;73.00;;;;;;5051602;28;19905;-86
2023/04/14 04:40:15;;;;;;;8.40;1.67;;;13.00;73.20;;;;;;5033847;28;20250;-86
2023/04/14 04:42:41;;;;;;;;;;;13.00;73.80;;;;;;5034750;28;20071;-86
2023/04/14 04:45:07;;;;;;;4.45;1.98;;;13.10;73.40;;;;;;5034212;28;20085;-87
2023/04/14 04:47:33;;;;;;;4.95;1.83;;;13.00;73.40;;;;;;5034433;28;20032;-86
2023/04/14 04:49:59;;;;;;;;;;;13.10;73.10;;;;;;5035407;28;20032;-86
2023/04/14 04:52:24;;;;;;;6.18;2.38;;;13.10;73.20;;;;;;5034843;28;19928;-86
2023/04/14 04:54:51;;;;;;;;;;;13.10;73.20;;;;;;5033962;28;20144;-83
2023/04/14 04:57:18;;;;;;;3.58;2.10;;;13.20;72.70;;;;;;5032696;28;19958;-83
2023/04/14 04:59:43;;;;;;;4.45;1.77;;;13.20;73.00;;;;;;5032579;28;20048;-86
2023/04/14 05:02:09;;;;;;;;;;;13.30;72.50;;;;;;5033060;28;20052;-83
2023/04/14 05:04:35;;;;;;;7.80;2.20;;;13.30;72.40;;;;;;5032390;28;19919;-86
2023/04/14 05:07:01;;;;;;;;;;;13.40;72.20;;;;;;5034476;28;20035;-85
2023/04/14 05:09:27;;;;;;;6.65;2.30;;;13.50;72.10;;;;;;5032222;28;19915;-85
2023/04/14 05:11:52;;;;;;;;;;;13.70;71.60;;;;;;5033453;28;20020;-89
2023/04/14 05:14:18;;;;;;;3.72;1.73;;;14.10;69.40;;;;;;5050328;28;20278;-86
2023/04/14 05:16:43;;;;;;;;;;;14.30;68.50;;;;;;5034309;28;20485;-85
2023/04/14 05:19:09;;;;;;;8.55;2.85;;;14.70;67.00;;;;;;5050814;28;19905;-86
2023/04/14 05:21:34;;;;;;;;;;;14.80;66.00;;;;;;5033806;28;20032;-84
2023/04/14 05:24:00;;;;;;;5.07;2.90;;;14.60;66.90;;;;;;5032718;28;19905;-85
2023/04/14 05:26:26;;;;;;;;;;;14.70;66.30;;;;;;5033352;28;20028;-85
2023/04/14 05:28:51;;;;;;;3.20;2.00;;;15.00;65.50;;;;;;5033032;28;19905;-85
2023/04/14 05:31:17;;;;;;;4.80;2.47;;;15.00;65.10;;;;;;5034283;28;20036;-86
2023/04/14 05:33:43;;;;;;;;;;;15.00;65.30;;;;;;5033764;28;20025;-84
2023/04/14 05:36:08;;;;;;;6.07;2.17;;;14.70;65.50;;;;;;5034725;28;19915;-85
2023/04/14 05:38:40;;;;;;;8.43;2.30;;;14.40;66.50;;;;;;5036735;28;20033;-85
2023/04/14 05:41:06;;;;;;;5.90;1.92;;;14.10;67.70;;;;;;5036315;28;20028;-85
2023/04/14 05:43:32;;;;;;;;;;;14.00;68.60;;;;;;5037480;28;20032;-86
2023/04/14 05:45:57;;;;;;;13.23;4.90;;;14.00;69.10;;;;;;5036524;28;20175;-85
2023/04/14 05:48:26;;;;;;;;;;;13.90;69.10;;;;;;5037819;28;20037;-86
2023/04/14 05:50:52;;;;;;;8.88;4.82;;;13.80;69.90;;;;;;5037124;28;20428;-84
2023/04/14 05:53:17;;;;;;;;;;;13.80;70.60;;;;;;5037797;28;20067;-82
2023/04/14 05:55:43;;;;;;;17.23;8.65;;;13.90;70.40;;;;;;5037693;28;20011;-84
2023/04/14 05:58:08;;;;;;;;;;;13.90;70.30;;;;;;5037734;28;20357;-84
2023/04/14 06:00:34;;;;;;;20.20;11.90;;;13.90;70.50;;;;;;5055660;28;19999;-85
2023/04/14 06:03:00;;;;;;;;;;;13.90;70.90;;;;;;5036470;28;20135;-84
2023/04/14 06:05:25;;;;;;;9.05;4.45;;;13.80;71.40;;;;;;5053788;28;20403;-84
2023/04/14 06:07:51;;;;;;;;;;;13.90;70.90;;;;;;5037969;28;20446;-84
2023/04/14 06:10:17;;;;;;;10.20;4.03;;;14.00;71.10;;;;;;5053972;28;19912;-85
2023/04/14 06:12:42;;;;;;;;;;;14.10;70.70;;;;;;5035774;28;20037;-85
2023/04/14 06:15:08;;;;;;;33.80;13.10;;;14.00;70.90;;;;;;5035256;28;20049;-87
2023/04/14 06:17:34;;;;;;;;;;;14.00;71.00;;;;;;5037246;28;20097;-85
2023/04/14 06:20:01;;;;;;;9.27;5.35;;;14.20;70.20;;;;;;5034944;28;19909;-86
2023/04/14 06:22:31;;;;;;;5.60;3.80;;;14.10;70.00;;;;;;5035011;28;20489;-84
2023/04/14 06:24:57;;;;;;;9.82;3.33;;;14.10;70.40;;;;;;5035197;28;20029;-84
2023/04/14 06:27:23;;;;;;;;;;;14.10;70.70;;;;;;5036179;28;20452;-86
2023/04/14 06:29:50;;;;;;;4.30;2.07;;;14.00;70.20;;;;;;5035919;28;19905;-86
2023/04/14 06:32:16;;;;;;;6.75;2.10;;;13.90;71.50;;;;;;5036005;28;20033;-85
2023/04/14 06:34:42;;;;;;;5.75;2.83;;;13.90;70.50;;;;;;5036088;28;20044;-85
2023/04/14 06:37:07;;;;;;;;;;;14.00;70.80;;;;;;5036553;28;20025;-82
2023/04/14 06:39:33;;;;;;;6.68;3.03;;;14.10;71.40;;;;;;5036722;28;20326;-86
2023/04/14 06:41:59;;;;;;;;;;;14.20;71.60;;;;;;5036643;28;20059;-83
2023/04/14 06:44:25;;;;;;;11.10;4.45;;;14.20;71.00;;;;;;5036482;28;19911;-84
2023/04/14 06:46:50;;;;;;;;;;;14.20;70.90;;;;;;5036015;28;20021;-84
2023/04/14 06:49:18;;;;;;;8.02;3.95;;;14.40;71.10;;;;;;5036289;28;19912;-83
2023/04/14 06:51:44;;;;;;;7.07;4.10;;;14.50;69.80;;;;;;5035737;28;20040;-85
2023/04/14 06:54:10;;;;;;;;;;;14.50;69.70;;;;;;5035604;28;20417;-83
2023/04/14 06:56:35;;;;;;;10.13;4.47;;;14.70;69.60;;;;;;5054007;28;20288;-84
2023/04/14 06:59:01;;;;;;;4.18;2.83;;;14.70;69.30;;;;;;5035777;28;20040;-85
2023/04/14 07:01:27;;;;;;;;;;;14.80;69.10;;;;;;5036041;28;20079;-84
2023/04/14 07:03:52;;;;;;;3.85;2.67;;;14.80;68.40;;;;;;5035241;28;19908;-84
2023/04/14 07:06:18;;;;;;;;;;;14.80;68.40;;;;;;5036194;28;20112;-85
2023/04/14 07:08:45;;;;;;;12.88;8.00;;;14.90;68.60;;;;;;5035445;28;19904;-82
2023/04/14 07:11:11;;;;;;;17.80;9.95;;;15.00;68.60;;;;;;5035632;28;20083;-84
2023/04/14 07:13:37;;;;;;;;;;;15.40;68.20;;;;;;5036507;28;20057;-84
2023/04/14 07:16:05;;;;;;;9.15;4.65;;;15.60;66.00;;;;;;5036586;28;19912;-84
2023/04/14 07:18:31;;;;;;;7.45;4.13;;;15.80;66.00;;;;;;5035183;28;20136;-83
2023/04/14 07:21:00;;;;;;;7.88;4.38;;;16.30;64.00;;;;;;5035433;28;20048;-85
2023/04/14 07:23:26;;;;;;;10.00;6.90;;;16.80;62.80;;;;;;5035785;28;20401;-83
2023/04/14 07:25:56;;;;;;;7.05;4.05;;;17.00;62.00;;;;;;5034697;28;20039;-84
2023/04/14 07:28:24;;;;;;;16.90;6.20;;;17.40;61.10;;;;;;5035372;28;20075;-84
2023/04/14 07:30:50;;;;;;;20.58;10.48;;;17.90;59.10;;;;;;5035458;28;20124;-85
2023/04/14 07:33:21;;;;;;;15.05;5.25;;;18.40;57.30;;;;;;5035218;28;20029;-85
2023/04/14 07:35:51;;;;;;;10.30;3.10;;;18.70;56.10;;;;;;5034589;28;20039;-84
2023/04/14 07:38:17;;;;;;;6.30;3.22;;;18.90;54.60;;;;;;5034091;28;20029;-84
2023/04/14 07:40:43;;;;;;;10.30;5.57;;;18.90;53.80;;;;;;5034661;28;20485;-86
2023/04/14 07:43:09;;;;;;;5.25;3.10;;;18.40;54.70;;;;;;5036041;28;20032;-86
2023/04/14 07:45:35;;;;;;;5.55;2.88;;;18.00;55.70;;;;;;5052512;28;20116;-86
2023/04/14 07:48:01;;;;;;;4.57;2.92;;;17.70;56.50;;;;;;5034663;28;20031;-85
2023/04/14 07:50:27;;;;;;;6.65;2.45;;;17.70;56.80;;;;;;5036264;28;20458;-85
2023/04/14 07:52:53;;;;;;;7.95;3.40;;;18.10;55.60;;;;;;5037019;28;20142;-86
2023/04/14 07:55:18;;;;;;;8.88;3.17;;;18.20;55.60;;;;;;5035617;28;20079;-86
2023/04/14 07:57:44;;;;;;;5.60;3.10;;;18.30;56.60;;;;;;5050630;28;20025;-85
2023/04/14 08:00:10;;;;;;;7.72;3.05;;;18.60;54.70;;;;;;5033747;28;20029;-85
2023/04/14 08:02:37;;;;;;;6.13;3.33;;;18.50;54.20;;;;;;5034724;28;20044;-84
2023/04/14 08:05:03;;;;;;;7.93;3.42;;;18.30;54.60;;;;;;5034137;28;20025;-83
2023/04/14 08:07:29;;;;;;;7.65;2.45;;;17.90;55.00;;;;;;5034575;28;20441;-85
2023/04/14 08:09:54;;;;;;;8.63;2.63;;;17.60;56.30;;;;;;5033683;28;20029;-85
2023/04/14 08:12:20;;;;;;;7.38;3.05;;;17.30;57.50;;;;;;5034251;28;20506;-85
2023/04/14 08:14:48;;;;;;;5.20;2.88;;;17.20;57.40;;;;;;5035302;28;20041;-86
2023/04/14 08:17:14;;;;;;;6.63;3.75;;;17.30;57.80;;;;;;5034365;28;20024;-85
2023/04/14 08:19:40;;;;;;;5.65;2.88;;;17.30;58.60;;;;;;5034125;28;20060;-85
2023/04/14 08:22:06;;;;;;;8.60;2.90;;;17.20;59.50;;;;;;5035099;28;20074;-85
2023/04/14 08:24:32;;;;;;;5.97;3.22;;;17.50;58.90;;;;;;5034076;28;20060;-85
2023/04/14 08:26:58;;;;;;;7.80;3.33;;;18.00;57.70;;;;;;5034037;28;20032;-86
2023/04/14 08:29:23;;;;;;;9.13;3.22;;;18.40;57.70;;;;;;5052167;28;20036;-84
2023/04/14 08:31:49;;;;;;;7.68;3.38;;;19.00;55.70;;;;;;5033802;28;20024;-82
2023/04/14 08:34:15;;;;;;;7.97;3.15;;;18.90;54.50;;;;;;5034217;28;20536;-84
2023/04/14 08:36:41;;;;;;;11.65;5.30;;;18.50;55.60;;;;;;5034340;28;20025;-84
2023/04/14 08:39:06;;;;;;;5.20;3.38;;;18.20;56.10;;;;;;5032805;28;20115;-82
2023/04/14 08:41:33;;;;;;;8.15;2.97;;;17.90;56.50;;;;;;5033698;28;20063;-83
2023/04/14 08:44:00;;;;;;;12.93;6.22;;;17.50;57.90;;;;;;5034515;28;20052;-83
2023/04/14 08:46:27;;;;;;;16.25;6.90;;;17.10;59.20;;;;;;5034161;28;20124;-84
2023/04/14 08:51:33;;;;;;;20.03;9.10;;;16.70;61.60;;;;;;5067789;27;20886;-87
2023/04/14 08:54:00;;;;;;;12.15;6.90;;;16.50;62.70;;;;;;5084208;28;20198;-88
2023/04/14 08:56:32;;;;;;;13.07;6.65;;;16.40;62.70;;;;;;5066150;28;20075;-85
2023/04/14 08:59:00;;;;;;;10.55;3.30;;;16.50;63.40;;;;;;5069672;28;20131;-84
2023/04/14 09:01:35;;;;;;;8.82;4.95;;;16.30;64.80;;;;;;5067982;28;20028;-85
2023/04/14 09:04:04;;;;;;;10.35;3.25;;;16.30;62.70;;;;;;5065401;28;20020;-86
2023/04/14 09:06:33;;;;;;;6.07;3.97;;;16.40;62.50;;;;;;5060567;28;20375;-86
2023/04/14 09:09:06;;;;;;;10.30;3.65;;;16.40;62.60;;;;;;5064108;28;20064;-87
2023/04/14 09:11:32;;;;;;;10.35;3.63;;;16.40;62.70;;;;;;5061241;28;20041;-87
2023/04/14 09:13:58;;;;;;;11.35;3.30;;;16.20;63.80;;;;;;5076903;28;20062;-87
2023/04/14 09:16:25;;;;;;;10.73;3.55;;;16.00;64.20;;;;;;5064965;28;20086;-87
2023/04/14 09:18:55;;;;;;;10.45;3.58;;;16.10;65.20;;;;;;5060248;28;20013;-88
2023/04/14 09:21:21;;;;;;;11.30;6.38;;;16.10;65.10;;;;;;5068330;28;20056;-86
2023/04/14 09:23:47;;;;;;;10.32;6.10;;;16.10;65.90;;;;;;5062433;28;20017;-85
2023/04/14 09:26:13;;;;;;;8.77;3.50;;;16.30;64.70;;;;;;5067095;28;20106;-86
2023/04/14 09:28:40;;;;;;;;;;;16.10;66.00;;;;;;5068110;28;20017;-86
2023/04/14 09:31:05;;;;;;;11.55;4.38;;;15.90;66.80;;;;;;5062385;28;19916;-87
2023/04/14 09:33:31;;;;;;;;;;;15.90;67.90;;;;;;5049818;28;20143;-87
2023/04/14 09:35:57;;;;;;;9.15;3.33;;;15.90;67.20;;;;;;5060206;28;19916;-87
2023/04/14 09:38:36;;;;;;;;;;;15.70;66.90;;;;;;5068156;28;20021;-86
2023/04/14 09:41:03;;;;;;;10.23;3.90;;;15.50;67.80;;;;;;5052194;28;19939;-87
2023/04/14 09:43:29;;;;;;;6.80;3.28;;;15.30;69.60;;;;;;5057109;28;20030;-87
2023/04/14 09:45:57;;;;;;;9.75;3.70;;;15.10;71.90;;;;;;5064703;28;20370;-86
2023/04/14 09:48:23;;;;;;;45.53;24.42;;;14.80;75.80;;;;;;5060376;28;20033;-85
2023/04/14 09:51:05;;;;;;;12.07;6.93;;;14.50;81.70;;;;;;5051359;28;20080;-86
2023/04/14 09:53:33;;;;;;;17.73;6.70;;;14.10;91.10;;;;;;5057673;28;20045;-85
2023/04/14 09:56:01;;;;;;;14.55;7.65;;;14.00;97.80;;;;;;5060650;28;20028;-86
2023/04/14 09:58:35;;;;;;;9.45;5.57;;;13.80;99.90;;;;;;5064691;28;20025;-86
2023/04/14 10:01:20;;;;;;;14.85;8.15;;;13.70;99.90;;;;;;5061904;28;20028;-85
2023/04/14 10:03:47;;;;;;;16.70;8.43;;;13.70;99.90;;;;;;5053484;28;20029;-86
2023/04/14 10:06:23;;;;;;;13.68;5.93;;;13.70;99.90;;;;;;5052560;28;20028;-85
2023/04/14 10:08:51;;;;;;;22.05;11.43;;;13.80;99.90;;;;;;5049860;28;20083;-85
2023/04/14 10:11:31;;;;;;;12.75;6.82;;;13.80;99.90;;;;;;5053943;28;20044;-84
2023/04/14 10:14:05;;;;;;;15.50;5.30;;;13.70;99.90;;;;;;5035322;28;20026;-85
2023/04/14 10:16:32;;;;;;;9.73;4.78;;;13.50;99.90;;;;;;5052924;28;20107;-84
2023/04/14 10:18:58;;;;;;;7.80;4.18;;;13.30;99.90;;;;;;5053019;28;20047;-84
2023/04/14 10:21:24;;;;;;;;;;;13.10;99.90;;;;;;5053279;28;20033;-84
2023/04/14 10:23:50;;;;;;;11.63;5.43;;;12.90;99.90;;;;;;5052949;28;19908;-84
2023/04/14 10:26:17;;;;;;;12.82;5.53;;;12.70;99.90;;;;;;5052512;28;20036;-84
2023/04/14 10:28:45;;;;;;;9.40;4.65;;;12.50;99.90;;;;;;5053399;28;20024;-83
2023/04/14 10:31:33;;;;;;;8.32;4.28;;;12.40;99.90;;;;;;5053201;28;20043;-84
2023/04/14 10:34:06;;;;;;;8.73;4.75;;;12.40;99.90;;;;;;5053311;28;20103;-84
2023/04/14 10:36:35;;;;;;;14.02;5.10;;;12.20;99.90;;;;;;5052323;28;20095;-84
2023/04/14 10:39:04;;;;;;;8.50;5.90;;;12.00;99.90;;;;;;5052605;28;20041;-84
2023/04/14 10:41:50;;;;;;;14.65;5.55;;;11.90;99.90;;;;;;5051776;28;20401;-83
2023/04/14 10:44:27;;;;;;;13.82;5.90;;;11.70;99.90;;;;;;5053231;28;20028;-84
2023/04/14 10:46:57;;;;;;;12.27;6.70;;;11.70;99.90;;;;;;5053593;28;20074;-85
2023/04/14 10:49:33;;;;;;;11.93;7.38;;;11.60;99.90;;;;;;5053148;28;20053;-85
2023/04/14 10:52:02;;;;;;;15.18;6.00;;;11.60;99.90;;;;;;5053863;28;20021;-85
2023/04/14 10:54:27;;;;;;;14.23;7.38;;;11.60;99.90;;;;;;5051597;28;20045;-86
2023/04/14 10:57:13;;;;;;;;;;;11.50;99.90;;;;;;5051303;28;20037;-86
2023/04/14 10:59:44;;;;;;;10.60;7.00;;;11.50;99.90;;;;;;5053412;28;19958;-86
2023/04/14 11:02:30;;;;;;;10.65;6.28;;;11.50;99.90;;;;;;5052990;28;20481;-86
2023/04/14 11:05:07;;;;;;;12.02;5.97;;;11.50;99.90;;;;;;5053946;28;20048;-86
2023/04/14 11:07:57;;;;;;;11.88;6.03;;;11.50;99.90;;;;;;5057218;28;20029;-85
2023/04/14 11:10:24;;;;;;;9.27;6.00;;;11.50;99.90;;;;;;5042948;28;20041;-86
2023/04/14 11:13:04;;;;;;;15.95;7.50;;;11.50;99.90;;;;;;5052052;28;20075;-88
2023/04/14 11:15:48;;;;;;;14.13;7.22;;;11.50;99.90;;;;;;5052962;28;20029;-85
2023/04/14 11:18:31;;;;;;;12.63;6.63;;;11.50;99.90;;;;;;5053201;28;20025;-86
2023/04/14 11:21:05;;;;;;;9.70;6.30;;;11.40;99.90;;;;;;5051860;28;20036;-85
2023/04/14 11:23:32;;;;;;;19.55;9.98;;;11.30;99.90;;;;;;5052288;28;20021;-87
2023/04/14 11:25:58;;;;;;;11.68;6.90;;;11.30;99.90;;;;;;5052461;28;20028;-86
2023/04/14 11:28:31;;;;;;;;;;;11.30;99.90;;;;;;5053016;28;20033;-87
2023/04/14 11:31:01;;;;;;;12.60;6.85;;;11.30;99.90;;;;;;5052673;28;19935;-85
2023/04/14 11:33:32;;;;;;;12.02;7.40;;;11.30;99.90;;;;;;5052656;28;20025;-87
2023/04/14 11:36:00;;;;;;;13.55;8.95;;;11.30;99.90;;;;;;5052310;28;20037;-85
2023/04/14 11:38:26;;;;;;;22.17;14.90;;;11.20;99.90;;;;;;5052086;28;20052;-85
2023/04/14 11:40:53;;;;;;;22.73;16.52;;;11.30;99.90;;;;;;5053496;28;20021;-85
2023/04/14 11:43:20;;;;;;;17.17;9.70;;;11.30;99.90;;;;;;5052713;28;20028;-85
2023/04/14 11:45:46;;;;;;;13.90;8.20;;;11.30;99.90;;;;;;5051268;28;20099;-86
2023/04/14 11:48:14;;;;;;;47.63;27.70;;;11.20;99.90;;;;;;5050428;28;20025;-86
2023/04/14 11:50:41;;;;;;;49.25;26.35;;;11.30;99.90;;;;;;5050804;28;20056;-85
2023/04/14 11:53:11;;;;;;;19.08;11.85;;;11.20;99.90;;;;;;5051699;28;20017;-86
2023/04/14 11:55:41;;;;;;;17.20;8.85;;;11.20;99.90;;;;;;5051751;28;20033;-87
2023/04/14 11:58:07;;;;;;;14.45;7.68;;;11.20;99.90;;;;;;5054081;28;20032;-86
2023/04/14 12:00:33;;;;;;;;;;;11.20;99.90;;;;;;5052621;28;20025;-87
2023/04/14 12:03:02;;;;;;;12.48;9.27;;;11.10;99.90;;;;;;5052160;28;19947;-86
2023/04/14 12:05:30;;;;;;;14.80;9.68;;;11.10;99.90;;;;;;5052190;28;20119;-88
2023/04/14 12:08:04;;;;;;;15.45;11.07;;;11.00;99.90;;;;;;5051829;28;20512;-84
2023/04/14 12:10:30;;;;;;;17.15;11.35;;;11.00;99.90;;;;;;5050634;28;20128;-86
2023/04/14 12:13:00;;;;;;;;;;;11.00;99.90;;;;;;5051806;28;20057;-86
2023/04/14 12:15:26;;;;;;;15.18;9.68;;;11.00;99.90;;;;;;5052894;28;19908;-86
2023/04/14 12:17:53;;;;;;;14.05;9.00;;;11.10;99.90;;;;;;5051482;28;20074;-86
2023/04/14 12:20:19;;;;;;;17.83;12.90;;;11.10;99.90;;;;;;5053402;28;20508;-86
2023/04/14 12:22:44;;;;;;;;;;;11.00;99.90;;;;;;5052380;28;20025;-86
2023/04/14 12:25:11;;;;;;;18.45;11.18;;;11.00;99.90;;;;;;5051697;28;19908;-87
2023/04/14 12:27:37;;;;;;;18.13;10.88;;;11.00;99.90;;;;;;5051890;28;20021;-86
2023/04/14 12:30:04;;;;;;;;;;;11.10;99.90;;;;;;5051902;28;20806;-86
2023/04/14 12:32:38;;;;;;;18.08;9.35;;;11.10;99.90;;;;;;5051869;28;19905;-88
2023/04/14 12:35:05;;;;;;;14.18;9.68;;;11.00;99.90;;;;;;5052006;28;20040;-87
2023/04/14 12:37:33;;;;;;;17.63;9.50;;;11.00;99.90;;;;;;5051780;28;20504;-87
2023/04/14 12:40:00;;;;;;;16.50;10.48;;;11.10;99.90;;;;;;5052753;28;20047;-86
2023/04/14 12:42:27;;;;;;;15.77;9.00;;;11.10;99.90;;;;;;5051289;28;20033;-86
2023/04/14 12:45:01;;;;;;;18.30;10.30;;;11.10;99.90;;;;;;5051261;28;20021;-87
2023/04/14 12:47:28;;;;;;;15.00;9.63;;;11.10;99.90;;;;;;5051521;28;20033;-87
2023/04/14 12:49:54;;;;;;;15.70;7.97;;;11.00;99.90;;;;;;5051517;28;20040;-86
2023/04/14 12:52:32;;;;;;;;;;;11.10;99.90;;;;;;5052280;28;20087;-87
2023/04/14 12:54:58;;;;;;;17.50;10.98;;;11.00;99.90;;;;;;5052128;28;20373;-88
2023/04/14 12:57:23;;;;;;;;;;;10.90;99.90;;;;;;5052163;28;20032;-86
2023/04/14 12:59:49;;;;;;;15.93;9.88;;;10.90;99.90;;;;;;5051614;28;19911;-87
2023/04/14 13:02:15;;;;;;;;;;;10.90;99.90;;;;;;5052210;28;20132;-86
2023/04/14 13:04:40;;;;;;;13.73;7.88;;;10.90;99.90;;;;;;5051686;28;20706;-85
2023/04/14 13:07:06;;;;;;;;;;;10.90;99.90;;;;;;5051872;28;20025;-87